createdAt,value
2022-10-15T00:00:22.077Z,11.88
2022-10-15T00:02:50.492Z,12.02
2022-10-15T00:05:18.516Z,12.02
2022-10-15T00:07:46.387Z,12.00
2022-10-15T00:10:14.785Z,11.97
2022-10-15T00:12:43.068Z,11.97
2022-10-15T00:15:11.867Z,11.97
2022-10-15T00:17:41.401Z,11.96
2022-10-15T00:20:11.653Z,11.95
2022-10-15T00:22:40.109Z,11.74
2022-10-15T00:25:09.222Z,11.94
2022-10-15T00:27:38.187Z,11.92
2022-10-15T00:30:07.305Z,11.90
2022-10-15T00:32:35.452Z,11.91
2022-10-15T00:35:05.180Z,11.89
2022-10-15T00:37:33.009Z,11.86
2022-10-15T00:42:33.648Z,11.85
2022-10-15T00:45:01.909Z,11.87
2022-10-15T00:47:36.219Z,11.89
2022-10-15T00:50:09.137Z,11.92
2022-10-15T00:52:47.081Z,11.93
2022-10-15T00:55:17.371Z,11.94
2022-10-15T00:57:47.963Z,11.98
2022-10-15T01:00:17.118Z,11.99
2022-10-15T01:02:46.264Z,11.97
2022-10-15T01:05:17.658Z,11.96
2022-10-15T01:07:45.535Z,11.94
2022-10-15T01:10:13.859Z,11.95
2022-10-15T01:12:58.010Z,11.93
2022-10-15T01:15:30.483Z,11.89
2022-10-15T01:18:02.607Z,11.86
2022-10-15T01:20:51.570Z,11.82
2022-10-15T01:23:55.044Z,11.73
2022-10-15T01:27:00.186Z,11.85
2022-10-15T01:29:47.828Z,11.83
2022-10-15T01:32:22.496Z,11.84
2022-10-15T01:34:57.680Z,11.82
2022-10-15T01:37:30.396Z,11.83
2022-10-15T01:40:05.321Z,11.80
2022-10-15T01:42:37.643Z,11.81
2022-10-15T01:45:11.104Z,11.80
2022-10-15T01:47:47.487Z,11.77
2022-10-15T01:50:18.070Z,11.83
2022-10-15T01:52:46.541Z,11.82
2022-10-15T01:55:18.111Z,11.79
2022-10-15T01:57:47.280Z,11.78
2022-10-15T02:00:15.535Z,11.76
2022-10-15T02:02:44.819Z,11.78
2022-10-15T02:05:19.109Z,11.80
2022-10-15T02:07:54.800Z,11.82
2022-10-15T02:10:29.012Z,11.83
2022-10-15T02:13:09.772Z,11.82
2022-10-15T02:15:45.889Z,11.53
2022-10-15T02:18:19.843Z,11.80
2022-10-15T02:20:54.242Z,11.79
2022-10-15T02:23:25.681Z,11.79
2022-10-15T02:25:54.524Z,11.79
2022-10-15T02:28:25.827Z,11.81
2022-10-15T02:30:54.276Z,11.80
2022-10-15T02:33:25.404Z,11.81
2022-10-15T02:35:54.074Z,11.63
2022-10-15T02:38:26.125Z,11.82
2022-10-15T02:40:55.032Z,11.64
2022-10-15T02:43:23.712Z,11.88
2022-10-15T02:45:51.625Z,11.88
2022-10-15T02:48:21.810Z,11.83
2022-10-15T02:50:51.055Z,11.89
2022-10-15T02:53:18.912Z,11.87
2022-10-15T02:55:47.094Z,11.87
2022-10-15T02:58:14.961Z,11.91
2022-10-15T03:00:42.854Z,11.93
2022-10-15T03:03:11.676Z,11.88
2022-10-15T03:05:39.670Z,11.90
2022-10-15T03:08:08.897Z,11.93
2022-10-15T03:10:36.898Z,11.44
2022-10-15T03:13:05.331Z,11.90
2022-10-15T03:15:33.607Z,11.88
2022-10-15T03:18:01.622Z,11.87
2022-10-15T03:20:29.536Z,11.83
2022-10-15T03:22:57.414Z,11.77
2022-10-15T03:25:26.657Z,11.78
2022-10-15T03:27:54.515Z,11.76
2022-10-15T03:30:22.404Z,11.75
2022-10-15T03:32:50.338Z,11.70
2022-10-15T03:35:18.447Z,11.76
2022-10-15T03:37:46.287Z,11.72
2022-10-15T03:40:14.788Z,11.77
2022-10-15T03:42:44.096Z,11.78
2022-10-15T03:45:12.387Z,11.76
2022-10-15T03:47:40.248Z,11.74
2022-10-15T03:50:08.705Z,11.73
2022-10-15T03:52:37.780Z,11.76
2022-10-15T03:55:06.794Z,11.76
2022-10-15T03:57:37.175Z,11.75
2022-10-15T04:00:09.568Z,11.74
2022-10-15T04:02:37.438Z,11.58
2022-10-15T04:05:05.995Z,11.71
2022-10-15T04:07:33.943Z,11.72
2022-10-15T04:10:01.790Z,11.68
2022-10-15T04:12:29.650Z,11.74
2022-10-15T04:14:57.503Z,11.78
2022-10-15T04:17:26.784Z,11.78
2022-10-15T04:19:54.635Z,11.77
2022-10-15T04:22:22.726Z,11.50
2022-10-15T04:24:51.177Z,11.78
2022-10-15T04:27:19.127Z,11.77
2022-10-15T04:29:48.473Z,11.77
2022-10-15T04:32:16.995Z,11.76
2022-10-15T04:34:47.391Z,11.72
2022-10-15T04:37:15.436Z,11.70
2022-10-15T04:39:43.263Z,11.67
2022-10-15T04:42:11.199Z,11.64
2022-10-15T04:44:39.061Z,11.62
2022-10-15T04:47:06.911Z,11.62
2022-10-15T04:49:34.768Z,11.65
2022-10-15T04:52:04.187Z,11.69
2022-10-15T04:54:32.105Z,11.69
2022-10-15T04:57:00.061Z,11.77
2022-10-15T04:59:27.922Z,11.82
2022-10-15T05:01:55.865Z,11.81
2022-10-15T05:04:23.754Z,11.77
2022-10-15T05:06:51.604Z,11.77
2022-10-15T05:09:20.947Z,11.80
2022-10-15T05:11:48.776Z,11.84
2022-10-15T05:14:16.625Z,11.87
2022-10-15T05:16:44.674Z,11.88
2022-10-15T05:19:12.787Z,11.80
2022-10-15T05:21:41.043Z,11.79
2022-10-15T05:24:08.984Z,11.63
2022-10-15T05:26:38.423Z,11.62
2022-10-15T05:29:06.294Z,11.67
2022-10-15T05:31:34.766Z,11.74
2022-10-15T05:34:08.224Z,11.74
2022-10-15T05:36:36.987Z,11.78
2022-10-15T05:39:07.138Z,11.93
2022-10-15T05:41:35.077Z,12.01
2022-10-15T05:44:04.664Z,12.10
2022-10-15T05:46:32.582Z,11.99
2022-10-15T05:49:00.782Z,12.28
2022-10-15T05:51:29.225Z,12.35
2022-10-15T05:53:58.448Z,12.33
2022-10-15T05:56:27.190Z,12.16
2022-10-15T05:58:55.400Z,12.22
2022-10-15T06:01:24.879Z,12.37
2022-10-15T06:03:52.943Z,12.33
2022-10-15T06:06:22.896Z,12.21
2022-10-15T06:08:53.342Z,12.30
2022-10-15T06:11:21.585Z,11.94
2022-10-15T06:13:49.539Z,12.46
2022-10-15T06:16:22.539Z,12.58
2022-10-15T06:18:54.535Z,12.65
2022-10-15T06:21:22.741Z,12.69
2022-10-15T06:23:50.624Z,12.85
2022-10-15T06:26:18.596Z,12.99
2022-10-15T06:28:46.480Z,13.08
2022-10-15T06:31:14.440Z,13.18
2022-10-15T06:33:42.288Z,13.32
2022-10-15T06:36:13.753Z,13.23
2022-10-15T06:38:44.142Z,13.28
2022-10-15T06:41:12.296Z,13.31
2022-10-15T06:43:40.509Z,13.48
2022-10-15T06:46:08.398Z,13.68
2022-10-15T06:48:36.482Z,13.17
2022-10-15T06:51:05.623Z,13.52
2022-10-15T06:53:35.180Z,14.05
2022-10-15T06:56:04.286Z,15.27
2022-10-15T06:58:32.165Z,16.03
2022-10-15T07:01:03.473Z,16.45
2022-10-15T07:03:31.343Z,15.68
2022-10-15T07:06:03.589Z,16.80
2022-10-15T07:08:31.521Z,16.91
2022-10-15T07:11:02.648Z,16.93
2022-10-15T07:13:30.839Z,16.85
2022-10-15T07:15:58.704Z,16.84
2022-10-15T07:18:26.562Z,16.60
2022-10-15T07:20:54.438Z,16.12
2022-10-15T07:23:25.522Z,16.60
2022-10-15T07:25:56.087Z,16.74
2022-10-15T07:28:25.500Z,17.20
2022-10-15T07:30:53.720Z,17.70
2022-10-15T07:33:21.756Z,17.79
2022-10-15T07:35:49.584Z,17.93
2022-10-15T07:38:17.984Z,18.10
2022-10-15T07:40:46.028Z,17.83
2022-10-15T07:43:14.164Z,18.06
2022-10-15T07:45:48.757Z,17.69
2022-10-15T07:48:16.795Z,17.30
2022-10-15T07:50:44.704Z,17.73
2022-10-15T07:53:12.671Z,18.48
2022-10-15T07:55:40.508Z,17.90
2022-10-15T07:58:08.857Z,17.16
2022-10-15T08:00:36.774Z,16.38
2022-10-15T08:03:06.080Z,16.50
2022-10-15T08:05:35.147Z,16.90
2022-10-15T08:08:03.450Z,16.53
2022-10-15T08:10:31.335Z,16.45
2022-10-15T08:12:59.183Z,16.63
2022-10-15T08:15:27.074Z,17.45
2022-10-15T08:17:54.947Z,17.87
2022-10-15T08:20:24.192Z,16.88
2022-10-15T08:22:52.045Z,18.38
2022-10-15T08:25:19.931Z,18.31
2022-10-15T08:27:47.819Z,18.93
2022-10-15T08:30:15.944Z,19.05
2022-10-15T08:32:43.820Z,18.86
2022-10-15T08:35:11.686Z,19.42
2022-10-15T08:37:40.919Z,19.41
2022-10-15T08:40:11.202Z,19.18
2022-10-15T08:42:42.831Z,19.38
2022-10-15T08:45:15.173Z,19.26
2022-10-15T08:47:47.596Z,19.72
2022-10-15T08:50:27.686Z,19.68
2022-10-15T08:53:00.132Z,18.80
2022-10-15T08:55:33.595Z,18.53
2022-10-15T08:58:08.129Z,18.61
2022-10-15T09:00:42.191Z,18.84
2022-10-15T09:03:25.392Z,19.13
2022-10-15T09:06:02.039Z,19.26
2022-10-15T09:08:38.133Z,19.41
2022-10-15T09:11:13.440Z,18.25
2022-10-15T09:13:44.425Z,18.83
2022-10-15T09:16:17.552Z,19.31
2022-10-15T09:18:48.552Z,19.41
2022-10-15T09:21:17.505Z,19.89
2022-10-15T09:23:46.991Z,20.02
2022-10-15T09:26:26.305Z,19.23
2022-10-15T09:29:04.511Z,18.69
2022-10-15T09:31:41.193Z,18.60
2022-10-15T09:34:16.137Z,19.69
2022-10-15T09:36:50.994Z,20.31
2022-10-15T09:39:44.751Z,19.67
2022-10-15T09:42:27.205Z,19.96
2022-10-15T09:44:58.783Z,20.90
2022-10-15T09:47:28.886Z,21.16
2022-10-15T09:49:56.772Z,21.36
2022-10-15T09:52:36.416Z,21.46
2022-10-15T09:55:11.871Z,20.69
2022-10-15T09:57:41.295Z,21.08
2022-10-15T10:00:11.820Z,20.44
2022-10-15T10:02:39.766Z,20.54
2022-10-15T10:05:21.519Z,20.78
2022-10-15T10:07:49.349Z,21.05
2022-10-15T10:10:27.904Z,20.69
2022-10-15T10:12:57.140Z,21.43
2022-10-15T10:15:34.267Z,21.48
2022-10-15T10:18:02.395Z,21.55
2022-10-15T10:20:31.877Z,21.41
2022-10-15T10:23:01.324Z,21.41
2022-10-15T10:25:42.475Z,22.06
2022-10-15T10:28:21.910Z,22.49
2022-10-15T10:31:03.727Z,22.68
2022-10-15T10:33:35.928Z,23.23
2022-10-15T10:36:06.112Z,23.34
2022-10-15T10:38:36.071Z,23.40
2022-10-15T10:41:09.801Z,23.61
2022-10-15T10:43:39.600Z,23.10
2022-10-15T10:46:18.154Z,22.66
2022-10-15T10:48:47.711Z,21.88
2022-10-15T10:51:19.408Z,21.78
2022-10-15T10:53:54.520Z,21.09
2022-10-15T10:56:28.862Z,20.74
2022-10-15T10:59:00.169Z,20.92
2022-10-15T11:01:29.270Z,20.63
2022-10-15T11:03:57.541Z,20.14
2022-10-15T11:06:57.804Z,19.49
2022-10-15T11:09:47.931Z,19.31
2022-10-15T11:12:36.413Z,19.92
2022-10-15T11:15:18.956Z,20.62
2022-10-15T11:17:53.264Z,20.56
2022-10-15T11:20:39.023Z,20.64
2022-10-15T11:23:29.716Z,19.83
2022-10-15T11:26:05.913Z,19.66
2022-10-15T11:28:51.326Z,19.57
2022-10-15T11:31:27.720Z,19.27
2022-10-15T11:34:17.260Z,19.53
2022-10-15T11:36:56.315Z,19.38
2022-10-15T11:39:53.608Z,19.69
2022-10-15T11:42:26.821Z,20.14
2022-10-15T11:45:06.772Z,20.30
2022-10-15T11:47:48.585Z,20.37
2022-10-15T11:50:27.705Z,19.68
2022-10-15T11:53:10.404Z,19.01
2022-10-15T11:55:42.344Z,18.89
2022-10-15T11:58:16.389Z,19.24
2022-10-15T12:00:51.286Z,18.90
2022-10-15T12:03:24.069Z,18.07
2022-10-15T12:05:55.682Z,18.71
2022-10-15T12:08:27.763Z,18.56
2022-10-15T12:11:05.775Z,18.74
2022-10-15T12:13:41.429Z,18.52
2022-10-15T12:16:20.840Z,18.46
2022-10-15T12:18:56.466Z,18.63
2022-10-15T12:21:39.552Z,19.00
2022-10-15T12:24:47.705Z,19.16
2022-10-15T12:27:24.038Z,18.67
2022-10-15T12:29:54.160Z,18.66
2022-10-15T12:32:26.456Z,18.53
2022-10-15T12:34:58.340Z,18.22
2022-10-15T12:37:29.143Z,18.26
2022-10-15T12:39:59.833Z,18.39
2022-10-15T12:42:31.806Z,18.46
2022-10-15T12:45:02.761Z,18.25
2022-10-15T12:47:50.465Z,18.16
2022-10-15T12:50:20.625Z,17.67
2022-10-15T12:52:57.860Z,17.79
2022-10-15T12:55:29.807Z,18.37
2022-10-15T12:58:00.578Z,18.37
2022-10-15T13:00:32.231Z,17.59
2022-10-15T13:03:12.229Z,18.22
2022-10-15T13:05:40.924Z,18.72
2022-10-15T13:08:16.120Z,19.36
2022-10-15T13:10:50.985Z,19.45
2022-10-15T13:13:22.301Z,17.79
2022-10-15T13:15:58.793Z,18.16
2022-10-15T13:18:31.445Z,18.15
2022-10-15T13:20:59.970Z,18.10
2022-10-15T13:23:30.458Z,17.95
2022-10-15T13:26:19.876Z,17.88
2022-10-15T13:28:48.988Z,17.77
2022-10-15T13:31:23.577Z,17.96
2022-10-15T13:34:00.483Z,18.20
2022-10-15T13:36:31.944Z,18.25
2022-10-15T13:39:03.716Z,17.88
2022-10-15T13:41:34.880Z,17.88
2022-10-15T13:44:03.183Z,17.21
2022-10-15T13:46:33.574Z,18.07
2022-10-15T13:49:10.176Z,17.00
2022-10-15T13:51:41.494Z,17.69
2022-10-15T13:54:12.884Z,17.61
2022-10-15T13:56:47.894Z,17.28
2022-10-15T13:59:20.288Z,16.95
2022-10-15T14:01:50.796Z,17.10
2022-10-15T14:04:21.230Z,16.96
2022-10-15T14:09:35.917Z,16.91
2022-10-15T14:12:06.901Z,16.94
2022-10-15T14:14:36.695Z,16.74
2022-10-15T14:17:06.844Z,16.83
2022-10-15T14:19:38.285Z,16.78
2022-10-15T14:22:07.060Z,16.93
2022-10-15T14:24:36.798Z,17.05
2022-10-15T14:27:07.407Z,17.09
2022-10-15T14:29:43.954Z,17.08
2022-10-15T14:32:24.356Z,17.01
2022-10-15T14:34:55.451Z,16.95
2022-10-15T14:37:44.278Z,16.83
2022-10-15T14:40:30.151Z,16.87
2022-10-15T14:43:06.590Z,16.74
2022-10-15T14:45:41.951Z,16.40
2022-10-15T14:48:12.378Z,16.25
2022-10-15T14:50:44.904Z,16.36
2022-10-15T14:53:19.533Z,16.42
2022-10-15T14:55:52.354Z,16.43
2022-10-15T14:58:22.515Z,16.49
2022-10-15T15:00:57.172Z,16.49
2022-10-15T15:03:30.816Z,16.46
2022-10-15T15:06:00.096Z,15.65
2022-10-15T15:08:28.332Z,16.54
2022-10-15T15:10:58.861Z,16.45
2022-10-15T15:13:28.793Z,16.44
2022-10-15T15:15:56.733Z,16.38
2022-10-15T15:18:25.091Z,16.27
2022-10-15T15:20:52.980Z,16.21
2022-10-15T15:23:25.040Z,16.17
2022-10-15T15:25:54.157Z,16.14
2022-10-15T15:28:24.322Z,16.16
2022-10-15T15:30:58.034Z,16.01
2022-10-15T15:33:26.517Z,15.88
2022-10-15T15:35:56.551Z,15.57
2022-10-15T15:38:30.835Z,15.73
2022-10-15T15:41:03.384Z,15.23
2022-10-15T15:43:31.734Z,15.46
2022-10-15T15:45:59.587Z,15.38
2022-10-15T15:48:27.445Z,15.32
2022-10-15T15:50:56.889Z,15.17
2022-10-15T15:53:26.120Z,15.13
2022-10-15T15:55:54.019Z,15.10
2022-10-15T15:58:21.882Z,14.86
2022-10-15T16:00:49.747Z,14.93
2022-10-15T16:03:17.632Z,14.84
2022-10-15T16:05:45.804Z,14.83
2022-10-15T16:08:14.353Z,14.72
2022-10-15T16:10:44.788Z,14.56
2022-10-15T16:13:12.641Z,14.49
2022-10-15T16:15:40.480Z,14.58
2022-10-15T16:18:08.518Z,14.44
2022-10-15T16:20:39.525Z,14.43
2022-10-15T16:23:07.529Z,14.37
2022-10-15T16:25:35.449Z,14.28
2022-10-15T16:28:04.761Z,14.32
2022-10-15T16:30:32.684Z,14.21
2022-10-15T16:33:00.651Z,14.19
2022-10-15T16:35:28.576Z,14.05
2022-10-15T16:37:56.539Z,14.22
2022-10-15T16:40:24.503Z,14.18
2022-10-15T16:42:52.367Z,14.14
2022-10-15T16:45:21.608Z,14.02
2022-10-15T16:47:49.936Z,13.94
2022-10-15T16:50:18.061Z,13.88
2022-10-15T16:52:46.064Z,13.86
2022-10-15T16:55:13.935Z,13.76
2022-10-15T16:57:42.245Z,13.71
2022-10-15T17:00:11.424Z,13.65
2022-10-15T17:02:40.793Z,13.66
2022-10-15T17:05:09.655Z,13.57
2022-10-15T17:07:37.560Z,13.60
2022-10-15T17:10:08.561Z,13.61
2022-10-15T17:12:38.963Z,13.63
2022-10-15T17:15:08.182Z,13.53
2022-10-15T17:17:37.237Z,13.49
2022-10-15T17:20:09.154Z,13.57
2022-10-15T17:22:37.602Z,13.28
2022-10-15T17:25:06.183Z,13.63
2022-10-15T17:27:35.727Z,13.63
2022-10-15T17:30:03.681Z,13.67
2022-10-15T17:32:31.537Z,13.67
2022-10-15T17:35:03.796Z,13.63
2022-10-15T17:40:07.447Z,13.64
2022-10-15T17:42:36.685Z,13.57
2022-10-15T17:45:05.220Z,13.56
2022-10-15T17:47:33.093Z,13.53
2022-10-15T17:50:00.937Z,13.46
2022-10-15T17:52:28.792Z,13.49
2022-10-15T17:54:58.023Z,13.51
2022-10-15T17:57:26.171Z,13.56
2022-10-15T17:59:54.309Z,13.43
2022-10-15T18:02:22.208Z,13.34
2022-10-15T18:04:50.115Z,13.36
2022-10-15T18:07:19.859Z,13.27
2022-10-15T18:09:47.753Z,13.23
2022-10-15T18:12:17.066Z,13.21
2022-10-15T18:14:44.907Z,13.23
2022-10-15T18:17:13.050Z,13.18
2022-10-15T18:19:41.031Z,13.17
2022-10-15T18:22:08.871Z,13.12
2022-10-15T18:24:36.754Z,13.09
2022-10-15T18:27:04.815Z,13.05
2022-10-15T18:29:35.981Z,12.64
2022-10-15T18:32:04.037Z,12.63
2022-10-15T18:34:33.308Z,12.91
2022-10-15T18:37:01.229Z,12.84
2022-10-15T18:39:29.097Z,12.77
2022-10-15T18:41:56.966Z,12.77
2022-10-15T18:44:25.443Z,12.58
2022-10-15T18:46:54.804Z,12.43
2022-10-15T18:49:22.936Z,12.32
2022-10-15T18:51:52.882Z,12.36
2022-10-15T18:54:21.487Z,12.27
2022-10-15T18:56:49.695Z,12.27
2022-10-15T18:59:17.593Z,12.23
2022-10-15T19:01:45.656Z,12.32
2022-10-15T19:04:17.485Z,12.33
2022-10-15T19:06:47.521Z,12.32
2022-10-15T19:09:18.823Z,12.38
2022-10-15T19:11:49.481Z,12.39
2022-10-15T19:14:18.094Z,12.38
2022-10-15T19:16:46.780Z,12.33
2022-10-15T19:19:18.291Z,12.31
2022-10-15T19:21:47.524Z,12.32
2022-10-15T19:24:16.868Z,12.33
2022-10-15T19:26:44.873Z,12.33
2022-10-15T19:29:13.060Z,12.36
2022-10-15T19:31:42.635Z,12.35
2022-10-15T19:34:10.988Z,12.29
2022-10-15T19:36:43.360Z,12.16
2022-10-15T19:39:14.667Z,12.14
2022-10-15T19:41:44.151Z,11.94
2022-10-15T19:44:14.006Z,11.88
2022-10-15T19:46:42.039Z,11.84
2022-10-15T19:49:12.374Z,11.78
2022-10-15T19:51:41.769Z,11.73
2022-10-15T19:54:10.171Z,11.62
2022-10-15T19:56:38.062Z,11.73
2022-10-15T19:59:07.356Z,11.71
2022-10-15T20:01:35.647Z,11.76
2022-10-15T20:04:06.459Z,11.70
2022-10-15T20:06:36.131Z,11.58
2022-10-15T20:09:05.973Z,11.59
2022-10-15T20:11:34.191Z,11.58
2022-10-15T20:14:02.685Z,11.57
2022-10-15T20:16:33.190Z,11.61
2022-10-15T20:19:02.734Z,11.64
2022-10-15T20:21:30.818Z,11.70
2022-10-15T20:23:58.940Z,11.51
2022-10-15T20:26:28.207Z,11.65
2022-10-15T20:28:56.120Z,10.87
2022-10-15T20:31:28.545Z,11.54
2022-10-15T20:33:56.443Z,11.56
2022-10-15T20:36:27.340Z,11.56
2022-10-15T20:38:57.400Z,11.55
2022-10-15T20:41:25.813Z,11.64
2022-10-15T20:43:57.199Z,11.65
2022-10-15T20:46:28.840Z,11.49
2022-10-15T20:49:02.167Z,11.70
2022-10-15T20:51:33.120Z,11.46
2022-10-15T20:54:01.407Z,11.84
2022-10-15T20:56:29.569Z,11.89
2022-10-15T20:58:59.008Z,11.87
2022-10-15T21:01:26.892Z,11.75
2022-10-15T21:03:54.804Z,11.81
2022-10-15T21:06:22.855Z,11.50
2022-10-15T21:08:50.774Z,11.75
2022-10-15T21:11:18.662Z,11.68
2022-10-15T21:13:46.549Z,11.51
2022-10-15T21:16:15.868Z,11.64
2022-10-15T21:18:43.826Z,11.60
2022-10-15T21:21:13.600Z,11.23
2022-10-15T21:23:42.988Z,11.50
2022-10-15T21:26:13.381Z,11.29
2022-10-15T21:28:41.782Z,11.34
2022-10-15T21:31:11.327Z,11.02
2022-10-15T21:33:41.338Z,11.08
2022-10-15T21:36:14.216Z,11.10
2022-10-15T21:38:42.893Z,10.99
2022-10-15T21:41:10.877Z,11.02
2022-10-15T21:43:38.829Z,10.98
2022-10-15T21:46:09.101Z,10.98
2022-10-15T21:48:37.587Z,10.93
2022-10-15T21:51:10.487Z,10.93
2022-10-15T21:53:38.350Z,11.00
2022-10-15T21:56:08.085Z,11.00
2022-10-15T21:58:37.970Z,10.59
2022-10-15T22:01:10.263Z,11.04
2022-10-15T22:03:38.677Z,11.06
2022-10-15T22:06:09.446Z,10.71
2022-10-15T22:08:38.754Z,11.02
2022-10-15T22:11:12.653Z,10.98
2022-10-15T22:13:41.422Z,10.86
2022-10-15T22:16:10.749Z,10.93
2022-10-15T22:18:39.064Z,10.88
2022-10-15T22:21:15.768Z,10.82
2022-10-15T22:23:44.687Z,10.41
2022-10-15T22:26:13.389Z,10.76
2022-10-15T22:28:42.572Z,10.71
2022-10-15T22:31:13.847Z,10.71
2022-10-15T22:33:41.828Z,10.82
2022-10-15T22:36:16.647Z,10.84
2022-10-15T22:38:46.720Z,10.85
2022-10-15T22:41:18.076Z,10.86
2022-10-15T22:43:45.941Z,10.82
2022-10-15T22:46:14.288Z,10.70
2022-10-15T22:48:49.501Z,10.59
2022-10-15T22:51:18.828Z,10.53
2022-10-15T22:53:46.701Z,10.50
2022-10-15T22:56:16.942Z,10.50
2022-10-15T22:58:46.761Z,10.45
2022-10-15T23:01:16.344Z,10.40
2022-10-15T23:03:46.401Z,10.22
2022-10-15T23:06:15.386Z,10.33
2022-10-15T23:08:45.293Z,10.27
2022-10-15T23:11:15.592Z,10.03
2022-10-15T23:13:44.711Z,9.96
2022-10-15T23:16:15.076Z,9.80
2022-10-15T23:18:47.697Z,9.72
2022-10-15T23:21:20.102Z,9.58
2022-10-15T23:23:50.453Z,9.62
2022-10-15T23:26:23.703Z,9.60
2022-10-15T23:28:53.837Z,9.58
2022-10-15T23:31:25.718Z,9.61
2022-10-15T23:34:05.002Z,9.53
2022-10-15T23:36:38.684Z,9.45
2022-10-15T23:39:16.258Z,9.45
2022-10-15T23:41:46.402Z,9.46
2022-10-15T23:44:14.969Z,9.28
2022-10-15T23:46:43.423Z,9.45
2022-10-15T23:51:57.875Z,9.19
2022-10-15T23:54:27.228Z,9.19
2022-10-15T23:56:55.130Z,9.27
2022-10-15T23:59:25.900Z,9.29
